Time;durP1;ratioP1;P1;durP2;ratioP2;P2;SDS_P1;SDS_P2;PMS_P1;PMS_P2;Temp;Humidity;BMP_temperature;BMP_pressure;BME280_temperature;BME280_humidity;BME280_pressure;Samples;Min_cycle;Max_cycle;Signal;HPM_P1;HPM_P2
2022/01/17 00:01:33;;;;;;;640.55;333.83;;;-1.50;99.90;;;;;;5037972;28;20045;-78
2022/01/17 00:04:01;;;;;;;661.80;341.05;;;-1.50;99.90;;;;;;5034746;28;20050;-78
2022/01/17 00:06:29;;;;;;;646.35;333.88;;;-1.40;99.90;;;;;;5049673;28;20524;-77
2022/01/17 00:08:57;;;;;;;622.80;316.25;;;-1.30;99.90;;;;;;5100837;23;20021;-80
2022/01/17 00:11:25;;;;;;;607.47;306.55;;;-1.30;99.90;;;;;;5056747;28;20045;-79
2022/01/17 00:13:55;;;;;;;542.13;271.58;;;-1.30;99.90;;;;;;5074200;28;20115;-79
2022/01/17 00:16:33;;;;;;;504.27;259.23;;;-1.20;99.90;;;;;;5059787;28;20051;-79
2022/01/17 00:19:30;;;;;;;544.67;277.75;;;-1.10;99.90;;;;;;5044988;28;20439;-77
2022/01/17 00:21:57;;;;;;;582.47;305.08;;;-1.00;99.90;;;;;;5067998;28;20048;-78
2022/01/17 00:24:24;;;;;;;550.90;283.00;;;-0.90;99.90;;;;;;5048322;28;20055;-79
2022/01/17 00:26:52;;;;;;;535.83;274.02;;;-0.90;99.90;;;;;;5061968;28;20056;-78
2022/01/17 00:29:20;;;;;;;590.55;297.80;;;-0.80;99.90;;;;;;5076587;28;20055;-78
2022/01/17 00:31:49;;;;;;;536.65;273.45;;;-0.80;99.90;;;;;;5059575;28;20371;-78
2022/01/17 00:34:16;;;;;;;497.13;251.00;;;-0.80;99.90;;;;;;5057595;28;20048;-79
2022/01/17 00:36:44;;;;;;;477.55;237.50;;;-0.70;99.90;;;;;;5065749;28;20040;-77
2022/01/17 00:39:11;;;;;;;453.77;228.85;;;-0.80;99.90;;;;;;5064614;28;20495;-80
2022/01/17 00:41:39;;;;;;;423.73;214.73;;;-0.70;99.90;;;;;;5065742;28;20064;-77
2022/01/17 00:44:06;;;;;;;453.95;231.27;;;-0.60;99.90;;;;;;5063484;28;20523;-79
2022/01/17 00:46:36;;;;;;;468.98;238.38;;;-0.60;99.90;;;;;;5069498;28;20044;-79
2022/01/17 00:49:05;;;;;;;412.40;209.02;;;-0.70;99.90;;;;;;5098562;28;20048;-78
2022/01/17 00:51:33;;;;;;;392.73;201.85;;;-0.60;99.90;;;;;;5098412;28;20017;-78
2022/01/17 00:54:00;;;;;;;423.67;215.57;;;-0.60;99.90;;;;;;5093995;28;20072;-76
2022/01/17 00:56:28;;;;;;;420.38;213.95;;;-0.60;99.90;;;;;;5084742;28;20049;-78
2022/01/17 00:58:55;;;;;;;419.02;211.13;;;-0.60;99.90;;;;;;5090255;28;20068;-80
2022/01/17 01:01:23;;;;;;;430.92;218.52;;;-0.50;99.90;;;;;;5083326;28;20079;-81
2022/01/17 01:03:50;;;;;;;405.15;209.25;;;-0.40;99.90;;;;;;5064077;28;20068;-81
2022/01/17 01:06:20;;;;;;;360.85;184.85;;;-0.30;99.90;;;;;;5064556;28;20048;-81
2022/01/17 01:08:47;;;;;;;300.25;151.75;;;-0.30;99.90;;;;;;5082473;28;20558;-80
2022/01/17 01:11:15;;;;;;;289.77;145.02;;;-0.30;99.90;;;;;;5070691;28;20041;-80
2022/01/17 01:13:42;;;;;;;309.75;152.38;;;-0.30;99.90;;;;;;5078418;28;20060;-78
2022/01/17 01:16:30;;;;;;;339.42;176.55;;;-0.30;99.90;;;;;;5072493;28;20452;-78
2022/01/17 01:27:46;;;;;;;380.70;197.52;;;-0.60;99.90;;;;;;5058636;28;20053;-78
2022/01/17 01:30:17;;;;;;;339.88;175.10;;;-0.70;99.90;;;;;;5059631;28;20049;-78
2022/01/17 01:32:49;;;;;;;382.55;199.20;;;-0.70;99.90;;;;;;5081840;28;20040;-80
2022/01/17 01:35:19;;;;;;;394.85;202.43;;;-0.70;99.90;;;;;;5079789;28;20437;-78
2022/01/17 01:37:49;;;;;;;409.65;213.55;;;-0.70;99.90;;;;;;5080111;28;20131;-79
2022/01/17 01:40:17;;;;;;;420.38;216.27;;;-0.70;99.90;;;;;;5081520;28;20048;-80
2022/01/17 01:42:46;;;;;;;400.63;207.18;;;-0.70;99.90;;;;;;5067234;28;20068;-79
2022/01/17 01:45:15;;;;;;;441.08;229.05;;;-0.70;99.90;;;;;;5063327;28;20044;-80
2022/01/17 01:47:43;;;;;;;428.90;223.35;;;-0.70;99.90;;;;;;5065163;28;20513;-80
2022/01/17 01:50:12;;;;;;;412.67;211.88;;;-0.70;99.90;;;;;;5054551;28;20045;-79
2022/01/17 01:52:42;;;;;;;363.60;188.77;;;-0.70;99.90;;;;;;5080849;28;20040;-77
2022/01/17 01:55:13;;;;;;;385.42;199.88;;;-0.80;99.90;;;;;;5082340;28;20462;-80
2022/01/17 01:57:42;;;;;;;418.63;222.35;;;-0.80;99.90;;;;;;5065622;28;20112;-78
2022/01/17 02:00:12;;;;;;;406.95;213.10;;;-0.80;99.90;;;;;;5079580;28;20047;-78
2022/01/17 02:02:39;;;;;;;411.85;211.35;;;-0.90;99.90;;;;;;5083059;28;20048;-79
2022/01/17 02:05:08;;;;;;;413.77;209.60;;;-0.90;99.90;;;;;;5079133;28;20040;-78
2022/01/17 02:07:36;;;;;;;407.88;209.10;;;-0.90;99.90;;;;;;5075839;28;20147;-79
2022/01/17 02:10:05;;;;;;;407.48;214.23;;;-0.90;99.90;;;;;;5108057;28;20086;-79
2022/01/17 02:12:34;;;;;;;412.30;217.88;;;-1.00;99.90;;;;;;5099841;28;20036;-79
2022/01/17 02:15:02;;;;;;;425.88;224.32;;;-1.00;99.90;;;;;;5115118;28;20035;-81
2022/01/17 02:17:33;;;;;;;415.77;225.40;;;-0.90;99.90;;;;;;5078128;28;20068;-78
2022/01/17 02:20:07;;;;;;;409.85;217.35;;;-0.90;99.90;;;;;;5074748;28;20515;-78
2022/01/17 02:22:35;;;;;;;420.45;223.23;;;-1.00;99.90;;;;;;5075222;28;20060;-78
2022/01/17 02:25:03;;;;;;;429.55;228.95;;;-1.00;99.90;;;;;;5084076;28;20069;-80
2022/01/17 02:27:30;;;;;;;428.45;227.90;;;-1.10;99.90;;;;;;5080764;28;20045;-81
2022/01/17 02:29:58;;;;;;;414.63;219.77;;;-1.20;99.90;;;;;;5045274;28;20099;-80
2022/01/17 02:32:25;;;;;;;408.65;216.10;;;-1.20;99.90;;;;;;5062676;28;20049;-81
2022/01/17 02:35:10;;;;;;;416.63;218.52;;;-1.30;99.90;;;;;;5076431;28;20068;-81
2022/01/17 02:37:39;;;;;;;399.13;209.45;;;-1.30;99.90;;;;;;5065412;28;20090;-80
2022/01/17 02:40:08;;;;;;;394.90;208.07;;;-1.30;99.90;;;;;;5085635;28;20075;-80
2022/01/17 02:42:37;;;;;;;393.25;208.15;;;-1.30;99.90;;;;;;5064533;28;20044;-80
2022/01/17 02:45:11;;;;;;;391.70;208.48;;;-1.30;99.90;;;;;;5066122;28;20049;-80
2022/01/17 02:47:40;;;;;;;385.77;202.48;;;-1.30;99.90;;;;;;5067443;28;20139;-80
2022/01/17 02:50:08;;;;;;;386.70;204.63;;;-1.30;99.90;;;;;;5085106;28;20060;-80
2022/01/17 02:52:36;;;;;;;393.65;208.18;;;-1.30;99.90;;;;;;5085516;28;20472;-80
2022/01/17 02:55:06;;;;;;;353.95;187.80;;;-1.30;99.90;;;;;;5079597;28;20434;-78
2022/01/17 02:57:33;;;;;;;355.80;194.35;;;-1.40;99.90;;;;;;5059022;28;20065;-79
2022/01/17 03:00:01;;;;;;;353.48;191.02;;;-1.40;99.90;;;;;;5077386;28;20037;-79
2022/01/17 03:02:28;;;;;;;320.30;169.60;;;-1.40;99.90;;;;;;5077304;28;20048;-79
2022/01/17 03:04:56;;;;;;;343.10;179.60;;;-1.40;99.90;;;;;;5077477;28;20447;-79
2022/01/17 03:07:23;;;;;;;314.17;166.10;;;-1.40;99.90;;;;;;5059174;28;20049;-78
2022/01/17 03:10:01;;;;;;;300.15;155.88;;;-1.30;99.90;;;;;;5059619;28;20056;-78
2022/01/17 03:12:31;;;;;;;298.55;151.48;;;-1.20;99.90;;;;;;5077687;28;20040;-78
2022/01/17 03:14:59;;;;;;;289.52;152.13;;;-1.30;99.90;;;;;;5058168;28;20044;-78
2022/01/17 03:17:27;;;;;;;274.25;143.13;;;-1.20;99.90;;;;;;5076282;28;20036;-78
2022/01/17 03:19:54;;;;;;;287.88;153.90;;;-1.20;99.90;;;;;;5076404;28;20059;-78
2022/01/17 03:22:22;;;;;;;309.90;160.23;;;-1.20;99.90;;;;;;5076562;28;20048;-78
2022/01/17 03:24:49;;;;;;;314.63;168.43;;;-1.20;99.90;;;;;;5079161;28;20044;-78
2022/01/17 03:27:18;;;;;;;301.70;159.30;;;-1.20;99.90;;;;;;5082221;28;20041;-79
2022/01/17 03:29:48;;;;;;;308.33;165.10;;;-1.20;99.90;;;;;;5082493;28;20040;-79
2022/01/17 03:32:16;;;;;;;280.20;148.82;;;-1.30;99.90;;;;;;5085980;28;20048;-78
2022/01/17 03:34:43;;;;;;;259.55;134.07;;;-1.40;99.90;;;;;;5072139;28;20037;-78
2022/01/17 03:37:11;;;;;;;252.90;131.93;;;-1.40;99.90;;;;;;5089459;28;20064;-79
2022/01/17 03:39:39;;;;;;;238.68;125.35;;;-1.40;99.90;;;;;;5091293;28;20046;-79
2022/01/17 03:42:06;;;;;;;246.27;128.85;;;-1.20;99.90;;;;;;5090848;28;20115;-79
2022/01/17 03:44:34;;;;;;;259.73;135.32;;;-1.20;99.90;;;;;;5085826;28;20041;-78
2022/01/17 03:47:04;;;;;;;268.67;140.13;;;-1.00;99.90;;;;;;5066032;28;20037;-78
2022/01/17 03:49:31;;;;;;;270.17;136.90;;;-0.90;99.90;;;;;;5077903;28;20192;-79
2022/01/17 03:51:59;;;;;;;264.17;139.05;;;-0.90;99.90;;;;;;5072152;28;20127;-77
2022/01/17 03:54:26;;;;;;;268.52;138.20;;;-0.90;99.90;;;;;;5081024;28;20076;-80
2022/01/17 03:56:53;;;;;;;259.50;133.70;;;-0.80;99.90;;;;;;5076929;28;20043;-79
2022/01/17 03:59:21;;;;;;;266.40;135.98;;;-0.70;99.90;;;;;;5084210;28;20433;-80
2022/01/17 04:01:48;;;;;;;264.55;135.70;;;-0.60;99.90;;;;;;5080156;28;20102;-77
2022/01/17 04:04:17;;;;;;;258.35;133.77;;;-0.60;99.90;;;;;;5089276;28;20079;-79
2022/01/17 04:06:45;;;;;;;244.55;127.90;;;-0.50;99.90;;;;;;5088021;28;20561;-79
2022/01/17 04:09:13;;;;;;;244.57;127.68;;;-0.50;99.90;;;;;;5088094;28;20128;-77
2022/01/17 04:11:40;;;;;;;239.73;125.13;;;-0.40;99.90;;;;;;5084353;28;20044;-77
2022/01/17 04:14:09;;;;;;;241.23;129.05;;;-0.40;99.90;;;;;;5058438;28;20056;-77
2022/01/17 04:16:37;;;;;;;228.93;121.70;;;-0.30;99.90;;;;;;5072195;28;20044;-77
2022/01/17 04:19:04;;;;;;;234.75;126.07;;;-0.30;99.90;;;;;;5068593;28;20041;-77
2022/01/17 04:21:35;;;;;;;227.35;122.78;;;-0.30;99.90;;;;;;5075930;28;20044;-77
2022/01/17 04:24:03;;;;;;;225.05;120.03;;;-0.30;99.90;;;;;;5057916;28;20048;-78
2022/01/17 04:26:31;;;;;;;228.57;118.28;;;-0.20;99.90;;;;;;5074947;28;20116;-77
2022/01/17 04:28:58;;;;;;;218.10;117.63;;;-0.30;99.90;;;;;;5074852;28;20098;-77
2022/01/17 04:31:29;;;;;;;220.25;115.65;;;-0.30;99.90;;;;;;5075581;28;20044;-78
2022/01/17 04:33:56;;;;;;;228.45;120.90;;;-0.30;99.90;;;;;;5074988;28;20104;-78
2022/01/17 04:36:24;;;;;;;247.10;132.27;;;-0.40;99.90;;;;;;5075020;28;20127;-79
2022/01/17 04:38:52;;;;;;;261.58;138.52;;;-0.40;99.90;;;;;;5056906;28;20479;-79
2022/01/17 04:41:27;;;;;;;252.55;135.43;;;-0.40;99.90;;;;;;5080504;28;20561;-79
2022/01/17 04:43:58;;;;;;;275.80;146.93;;;-0.40;99.90;;;;;;5063063;28;20063;-79
2022/01/17 04:46:26;;;;;;;288.00;149.70;;;-0.40;99.90;;;;;;5079462;28;20040;-79
2022/01/17 04:48:53;;;;;;;288.52;152.68;;;-0.50;99.90;;;;;;5081373;28;20047;-80
2022/01/17 04:51:21;;;;;;;298.48;158.80;;;-0.60;99.90;;;;;;5061293;28;20041;-80
2022/01/17 04:54:08;;;;;;;302.33;158.40;;;-0.60;99.90;;;;;;5071302;28;20115;-78
2022/01/17 04:56:37;;;;;;;302.40;158.25;;;-0.60;99.90;;;;;;5069848;28;20067;-79
2022/01/17 04:59:05;;;;;;;296.50;154.80;;;-0.70;99.90;;;;;;5042061;28;20049;-79
2022/01/17 05:01:32;;;;;;;285.67;155.10;;;-0.60;99.90;;;;;;5059559;28;20075;-76
2022/01/17 05:04:00;;;;;;;282.23;152.70;;;-0.60;99.90;;;;;;5071031;28;20045;-78
2022/01/17 05:06:28;;;;;;;298.63;151.32;;;-0.50;99.90;;;;;;5080579;28;20040;-79
2022/01/17 05:08:55;;;;;;;284.88;152.02;;;-0.30;99.90;;;;;;5081465;28;20056;-78
2022/01/17 05:11:28;;;;;;;286.30;149.02;;;-0.30;99.90;;;;;;5082577;28;20051;-79
2022/01/17 05:13:57;;;;;;;282.38;147.68;;;-0.20;99.90;;;;;;5064512;28;20048;-79
2022/01/17 05:16:32;;;;;;;270.35;145.23;;;-0.20;99.90;;;;;;5065011;28;20045;-79
2022/01/17 05:21:44;;;;;;;318.45;165.68;;;-0.20;99.90;;;;;;5064168;28;20059;-78
2022/01/17 05:24:12;;;;;;;357.10;178.07;;;-0.20;99.90;;;;;;5080690;28;20044;-79
2022/01/17 05:26:41;;;;;;;370.10;185.02;;;-0.20;99.90;;;;;;5062138;28;20036;-79
2022/01/17 05:29:10;;;;;;;376.70;189.27;;;-0.20;99.90;;;;;;5084995;28;20057;-80
2022/01/17 05:31:38;;;;;;;360.33;186.90;;;-0.30;99.90;;;;;;5072240;28;20059;-78
2022/01/17 05:34:05;;;;;;;339.75;177.38;;;-0.40;99.90;;;;;;5090496;28;20040;-80
2022/01/17 05:36:33;;;;;;;324.30;168.65;;;-0.60;99.90;;;;;;5087133;28;20053;-79
2022/01/17 05:39:00;;;;;;;331.60;166.23;;;-0.70;99.90;;;;;;5086007;28;20042;-79
2022/01/17 05:41:28;;;;;;;337.42;167.38;;;-0.70;99.90;;;;;;5082037;28;20044;-78
2022/01/17 05:43:55;;;;;;;356.20;181.23;;;-0.80;99.90;;;;;;5064422;28;20056;-78
2022/01/17 05:46:24;;;;;;;332.98;175.02;;;-0.80;99.90;;;;;;5081630;28;20044;-79
2022/01/17 05:48:52;;;;;;;313.13;165.93;;;-0.80;99.90;;;;;;5085797;28;20112;-81
2022/01/17 05:51:20;;;;;;;316.08;165.48;;;-0.70;99.90;;;;;;5054588;28;20049;-80
2022/01/17 05:53:48;;;;;;;323.23;172.10;;;-0.70;99.90;;;;;;5055169;28;20040;-78
2022/01/17 05:56:15;;;;;;;385.13;205.70;;;-0.70;99.90;;;;;;5069159;28;20053;-79
2022/01/17 05:58:43;;;;;;;379.05;203.63;;;-0.80;99.90;;;;;;5073481;28;20044;-78
2022/01/17 06:01:12;;;;;;;610.00;291.77;;;-0.80;99.90;;;;;;5070936;28;20076;-78
2022/01/17 06:03:41;;;;;;;581.38;282.67;;;-0.90;99.90;;;;;;5073673;28;20048;-79
2022/01/17 06:06:09;;;;;;;560.95;274.23;;;-1.00;99.90;;;;;;5081526;28;20048;-80
2022/01/17 06:08:37;;;;;;;481.15;236.32;;;-1.00;99.90;;;;;;5105493;22;20399;-77
2022/01/17 06:11:07;;;;;;;391.08;207.55;;;-1.00;99.90;;;;;;5093286;28;20090;-76
2022/01/17 06:13:35;;;;;;;391.10;205.77;;;-1.00;99.90;;;;;;5077262;28;20070;-78
2022/01/17 06:16:02;;;;;;;405.33;222.73;;;-1.00;99.90;;;;;;5075886;28;20045;-78
2022/01/17 06:18:30;;;;;;;420.55;228.98;;;-1.20;99.90;;;;;;5076486;28;20055;-78
2022/01/17 06:20:59;;;;;;;435.15;232.32;;;-1.20;99.90;;;;;;5076115;28;20449;-78
2022/01/17 06:23:27;;;;;;;454.60;247.30;;;-1.30;99.90;;;;;;5079487;28;20051;-77
2022/01/17 06:25:55;;;;;;;447.90;240.80;;;-1.30;99.90;;;;;;5075517;28;20052;-79
2022/01/17 06:28:23;;;;;;;391.45;209.35;;;-1.20;99.90;;;;;;5058649;28;20044;-78
2022/01/17 06:30:51;;;;;;;367.02;196.38;;;-1.20;99.90;;;;;;5077102;28;20041;-77
2022/01/17 06:33:18;;;;;;;441.00;231.95;;;-1.00;99.90;;;;;;5065350;28;20056;-78
2022/01/17 06:35:46;;;;;;;455.02;244.75;;;-0.80;99.90;;;;;;5096845;28;20490;-77
2022/01/17 06:38:15;;;;;;;427.50;237.30;;;-0.70;99.90;;;;;;5096641;28;20032;-76
2022/01/17 06:40:42;;;;;;;436.13;239.43;;;-0.60;99.90;;;;;;5103118;28;20040;-77
2022/01/17 06:43:10;;;;;;;423.17;232.18;;;-0.50;99.90;;;;;;5116907;28;20043;-77
2022/01/17 06:45:38;;;;;;;426.88;233.75;;;-0.50;99.90;;;;;;5069377;28;20083;-76
2022/01/17 06:48:07;;;;;;;423.65;231.18;;;-0.40;99.90;;;;;;5087915;28;20429;-77
2022/01/17 06:50:34;;;;;;;429.33;236.70;;;-0.50;99.90;;;;;;5091734;28;20082;-77
2022/01/17 06:53:02;;;;;;;413.35;229.85;;;-0.50;99.90;;;;;;5084089;28;20050;-75
2022/01/17 06:55:31;;;;;;;441.85;244.15;;;-0.50;99.90;;;;;;5069998;28;20056;-77
2022/01/17 06:57:59;;;;;;;431.27;233.98;;;-0.50;99.90;;;;;;5074901;28;20047;-77
2022/01/17 07:00:26;;;;;;;434.17;236.68;;;-0.50;99.90;;;;;;5074547;28;20062;-76
2022/01/17 07:02:54;;;;;;;424.35;232.25;;;-0.40;99.90;;;;;;5080066;28;20040;-76
2022/01/17 07:05:21;;;;;;;389.33;217.50;;;-0.40;99.90;;;;;;5082251;28;20495;-77
2022/01/17 07:07:49;;;;;;;423.75;231.60;;;-0.40;99.90;;;;;;5079896;28;20056;-77
2022/01/17 07:10:16;;;;;;;401.48;218.73;;;-0.40;99.90;;;;;;5085381;28;20055;-76
2022/01/17 07:12:46;;;;;;;394.40;220.55;;;-0.30;99.90;;;;;;5081702;28;20046;-78
2022/01/17 07:15:14;;;;;;;401.67;223.05;;;-0.30;99.90;;;;;;5076296;28;20382;-77
2022/01/17 07:17:41;;;;;;;339.05;184.48;;;-0.30;99.90;;;;;;5094326;28;20024;-77
2022/01/17 07:20:10;;;;;;;350.23;193.45;;;-0.20;99.90;;;;;;5093358;28;20098;-76
2022/01/17 07:22:38;;;;;;;382.50;210.20;;;-0.10;99.90;;;;;;5096216;28;20036;-77
2022/01/17 07:25:06;;;;;;;381.58;215.88;;;0.00;99.90;;;;;;5073404;28;20049;-77
2022/01/17 07:27:34;;;;;;;424.50;240.75;;;0.10;99.90;;;;;;5061142;28;20499;-76
2022/01/17 07:30:05;;;;;;;413.95;233.93;;;0.20;99.90;;;;;;5110786;28;20032;-77
2022/01/17 07:32:33;;;;;;;418.98;245.35;;;0.20;99.90;;;;;;5102445;28;20087;-77
2022/01/17 07:35:00;;;;;;;426.05;241.18;;;0.20;99.90;;;;;;5103341;28;20409;-76
2022/01/17 07:37:28;;;;;;;423.67;235.20;;;0.30;99.90;;;;;;5105186;28;20036;-77
2022/01/17 07:39:55;;;;;;;432.80;245.05;;;0.30;99.90;;;;;;5096997;28;20151;-77
2022/01/17 07:42:22;;;;;;;436.55;248.43;;;0.40;99.90;;;;;;5096277;28;20457;-78
2022/01/17 07:44:54;;;;;;;456.38;254.30;;;0.50;99.90;;;;;;5102679;28;20083;-77
2022/01/17 07:47:38;;;;;;;453.42;257.00;;;0.70;99.90;;;;;;5093941;28;20090;-77
2022/01/17 07:50:07;;;;;;;474.73;262.70;;;0.80;99.90;;;;;;5094779;28;20040;-77
2022/01/17 07:52:35;;;;;;;385.25;218.45;;;0.90;99.90;;;;;;5070492;28;20048;-77
2022/01/17 07:55:02;;;;;;;339.90;194.65;;;0.90;99.90;;;;;;5078645;28;20048;-77
2022/01/17 07:57:30;;;;;;;279.17;159.05;;;1.00;99.90;;;;;;5078038;28;20139;-77
2022/01/17 07:59:57;;;;;;;259.92;143.95;;;1.10;99.90;;;;;;5093650;28;20048;-76
2022/01/17 08:02:27;;;;;;;255.00;143.10;;;1.20;99.90;;;;;;5078959;28;20516;-77
2022/01/17 08:04:54;;;;;;;264.90;150.40;;;1.30;99.90;;;;;;5075478;28;20035;-76
2022/01/17 08:07:21;;;;;;;311.00;169.98;;;1.40;99.90;;;;;;5066019;28;20105;-76
2022/01/17 08:09:49;;;;;;;320.50;168.90;;;1.50;99.90;;;;;;5091235;28;20054;-76
2022/01/17 08:12:16;;;;;;;409.58;229.85;;;1.60;99.90;;;;;;5107115;28;20043;-75
2022/01/17 08:14:44;;;;;;;423.52;244.30;;;1.70;99.90;;;;;;5082349;28;20052;-79
2022/01/17 08:17:11;;;;;;;433.50;246.60;;;1.70;99.90;;;;;;5075578;28;20399;-76
2022/01/17 08:19:41;;;;;;;414.45;243.00;;;1.70;99.90;;;;;;5080484;28;20048;-77
2022/01/17 08:22:08;;;;;;;402.60;234.73;;;1.80;99.90;;;;;;5086678;28;20052;-76
2022/01/17 08:24:36;;;;;;;391.00;225.10;;;2.00;99.90;;;;;;5097067;28;20046;-78
2022/01/17 08:27:04;;;;;;;408.35;231.70;;;2.10;99.90;;;;;;5094880;28;20040;-77
2022/01/17 08:29:33;;;;;;;442.30;248.32;;;2.20;99.90;;;;;;5095776;28;20040;-77
2022/01/17 08:32:05;;;;;;;465.63;247.60;;;2.20;99.90;;;;;;5075937;28;20047;-78
2022/01/17 08:34:33;;;;;;;460.08;249.70;;;2.10;99.90;;;;;;5094675;28;20043;-76
2022/01/17 08:37:02;;;;;;;439.70;234.85;;;2.00;99.90;;;;;;5093991;28;20040;-77
2022/01/17 08:39:30;;;;;;;455.70;253.00;;;2.00;99.90;;;;;;5076468;28;20036;-76
2022/01/17 08:41:58;;;;;;;459.25;251.75;;;2.10;99.90;;;;;;5094738;28;20206;-77
2022/01/17 08:44:27;;;;;;;438.20;240.85;;;2.20;99.90;;;;;;5096385;28;20406;-77
2022/01/17 08:46:54;;;;;;;445.08;247.43;;;2.40;99.90;;;;;;5114972;28;20050;-77
2022/01/17 08:49:22;;;;;;;422.52;240.23;;;2.60;99.90;;;;;;5096811;28;20397;-76
2022/01/17 08:51:49;;;;;;;392.50;223.43;;;2.70;99.90;;;;;;5101776;28;20381;-76
2022/01/17 08:54:18;;;;;;;353.05;200.05;;;2.70;99.90;;;;;;5075220;28;20379;-76
2022/01/17 08:56:46;;;;;;;352.17;197.40;;;2.70;99.90;;;;;;5081158;28;20487;-76
2022/01/17 08:59:13;;;;;;;347.80;197.50;;;2.70;99.90;;;;;;5062036;28;20048;-77
2022/01/17 09:01:41;;;;;;;331.90;187.43;;;2.80;99.90;;;;;;5094455;28;20050;-76
2022/01/17 09:04:08;;;;;;;328.75;185.07;;;2.90;99.90;;;;;;5075280;28;20127;-77
2022/01/17 09:06:37;;;;;;;331.67;185.82;;;3.00;99.90;;;;;;5060987;28;20044;-77
2022/01/17 09:09:05;;;;;;;312.42;176.73;;;3.10;99.90;;;;;;5103362;28;20054;-77
2022/01/17 09:11:33;;;;;;;297.25;167.15;;;3.20;99.90;;;;;;5101509;28;20048;-76
2022/01/17 09:14:01;;;;;;;338.02;181.02;;;3.30;99.90;;;;;;5075751;28;20048;-77
2022/01/17 09:16:28;;;;;;;303.05;170.05;;;3.20;99.90;;;;;;5094113;28;20161;-76
2022/01/17 09:18:56;;;;;;;315.88;169.40;;;3.40;99.90;;;;;;5074615;28;20081;-77
2022/01/17 09:21:23;;;;;;;334.80;189.27;;;3.50;99.90;;;;;;5093447;28;20036;-78
2022/01/17 09:23:51;;;;;;;271.58;150.65;;;3.60;99.90;;;;;;5093316;28;20554;-77
2022/01/17 09:26:21;;;;;;;278.98;154.95;;;3.70;99.90;;;;;;5093817;28;20048;-76
2022/01/17 09:28:50;;;;;;;307.80;170.05;;;3.80;99.90;;;;;;5074730;28;20071;-75
2022/01/17 09:31:18;;;;;;;278.65;154.40;;;3.90;99.90;;;;;;5093513;28;20099;-76
2022/01/17 09:33:46;;;;;;;321.00;186.55;;;4.00;99.90;;;;;;5097855;28;20050;-77
2022/01/17 09:36:14;;;;;;;307.98;174.35;;;4.10;99.90;;;;;;5080093;28;20070;-77
2022/01/17 09:38:42;;;;;;;285.48;158.70;;;4.20;99.90;;;;;;5098958;28;20032;-79
2022/01/17 09:41:10;;;;;;;273.20;151.38;;;4.30;99.90;;;;;;5099302;28;20047;-77
2022/01/17 09:43:38;;;;;;;310.02;175.20;;;4.40;99.90;;;;;;5098144;28;20043;-77
2022/01/17 09:46:09;;;;;;;307.67;173.38;;;4.60;99.90;;;;;;5097825;28;20039;-76
2022/01/17 09:48:38;;;;;;;294.23;162.20;;;4.70;99.90;;;;;;5097020;28;20438;-77
2022/01/17 09:51:17;;;;;;;287.10;157.25;;;4.80;99.90;;;;;;5097463;28;20040;-77
2022/01/17 09:53:45;;;;;;;272.80;152.18;;;4.90;99.90;;;;;;5095708;28;20486;-76
2022/01/17 09:56:14;;;;;;;287.92;158.75;;;5.10;99.90;;;;;;5074985;28;20076;-76
2022/01/17 09:58:43;;;;;;;290.67;163.35;;;5.20;99.90;;;;;;5075189;28;20040;-75
2022/01/17 10:01:12;;;;;;;295.95;157.82;;;5.40;99.90;;;;;;5095069;28;20043;-75
2022/01/17 10:03:39;;;;;;;311.45;168.90;;;5.50;99.90;;;;;;5079243;28;20067;-76
2022/01/17 10:06:07;;;;;;;303.70;170.43;;;5.60;99.90;;;;;;5078937;28;20040;-76
2022/01/17 10:08:35;;;;;;;305.40;163.90;;;5.80;99.90;;;;;;5096673;28;20044;-76
2022/01/17 10:11:04;;;;;;;293.85;164.32;;;5.90;99.90;;;;;;5097438;28;20040;-77
2022/01/17 10:13:34;;;;;;;259.20;147.25;;;6.00;99.90;;;;;;5078738;28;20051;-76
2022/01/17 10:16:05;;;;;;;234.85;132.57;;;6.10;99.90;;;;;;5078667;28;20126;-77
2022/01/17 10:18:38;;;;;;;223.93;130.80;;;6.20;99.90;;;;;;5078814;28;20040;-77
2022/01/17 10:21:10;;;;;;;225.18;129.60;;;6.30;99.90;;;;;;5096405;28;20121;-76
2022/01/17 10:24:07;;;;;;;215.30;121.88;;;6.50;99.90;;;;;;5097190;28;20097;-77
2022/01/17 10:27:00;;;;;;;225.77;127.90;;;6.60;99.90;;;;;;5115923;28;20378;-76
2022/01/17 10:35:22;;;;;;;190.02;109.50;;;7.00;99.90;;;;;;5106699;28;20055;-78
2022/01/17 10:38:02;;;;;;;188.45;109.00;;;7.20;99.90;;;;;;5078464;28;20518;-78
2022/01/17 10:40:31;;;;;;;193.65;112.72;;;7.20;99.90;;;;;;5075500;28;20076;-76
2022/01/17 10:43:01;;;;;;;212.65;121.55;;;7.20;99.90;;;;;;5089590;28;20124;-75
2022/01/17 10:45:33;;;;;;;207.40;118.60;;;7.20;99.90;;;;;;5094542;28;20067;-77
2022/01/17 10:48:02;;;;;;;197.13;113.60;;;7.30;99.90;;;;;;5078445;28;20076;-77
2022/01/17 10:50:33;;;;;;;183.73;106.15;;;7.40;99.90;;;;;;5071452;28;20056;-78
2022/01/17 10:53:02;;;;;;;168.98;98.10;;;7.40;99.90;;;;;;5098869;28;20045;-78
2022/01/17 10:55:32;;;;;;;114.28;67.13;;;7.50;99.90;;;;;;5078465;28;20056;-78
2022/01/17 10:58:03;;;;;;;86.40;50.13;;;7.60;99.90;;;;;;5097187;28;20137;-75
2022/01/17 11:00:34;;;;;;;115.40;67.95;;;7.70;99.90;;;;;;5077820;28;20055;-79
2022/01/17 11:03:03;;;;;;;136.85;84.60;;;7.80;99.90;;;;;;5096887;28;20051;-77
2022/01/17 11:05:33;;;;;;;150.38;85.32;;;7.90;99.90;;;;;;5094569;28;20048;-77
2022/01/17 11:08:01;;;;;;;149.25;83.10;;;8.00;99.90;;;;;;5096524;28;20117;-77
2022/01/17 11:10:32;;;;;;;144.30;85.45;;;8.10;99.90;;;;;;5096237;28;20087;-76
2022/01/17 11:13:02;;;;;;;146.90;85.75;;;8.20;99.90;;;;;;5078162;28;20046;-78
2022/01/17 11:15:33;;;;;;;136.25;83.03;;;8.30;99.90;;;;;;5077530;28;20160;-76
2022/01/17 11:18:05;;;;;;;137.95;83.93;;;8.30;99.90;;;;;;5097587;28;20067;-77
2022/01/17 11:20:35;;;;;;;130.98;74.22;;;8.40;99.90;;;;;;5107549;28;20051;-77
2022/01/17 11:23:04;;;;;;;116.38;66.93;;;8.40;99.90;;;;;;5108266;28;20051;-77
2022/01/17 11:25:33;;;;;;;97.55;56.30;;;8.40;99.90;;;;;;5107021;28;20048;-77
2022/01/17 11:28:01;;;;;;;91.13;53.40;;;8.30;99.90;;;;;;5106327;28;20123;-77
2022/01/17 11:30:34;;;;;;;94.18;53.55;;;8.30;99.90;;;;;;5098781;28;20032;-76
2022/01/17 11:33:04;;;;;;;83.90;47.92;;;8.30;99.90;;;;;;5096267;28;20107;-76
2022/01/17 11:35:34;;;;;;;75.63;43.88;;;8.40;99.90;;;;;;5077034;28;20055;-77
2022/01/17 11:38:04;;;;;;;81.80;45.80;;;8.50;99.90;;;;;;5077086;28;20048;-75
2022/01/17 11:40:34;;;;;;;72.55;44.00;;;8.50;99.90;;;;;;5076858;28;20503;-77
2022/01/17 11:43:03;;;;;;;76.78;44.95;;;8.60;99.90;;;;;;5077170;28;20135;-78
2022/01/17 11:45:41;;;;;;;71.80;43.95;;;8.60;99.90;;;;;;5076926;28;20068;-76
2022/01/17 11:48:17;;;;;;;68.00;40.47;;;8.70;99.90;;;;;;5096258;28;20040;-75
2022/01/17 11:50:48;;;;;;;74.28;41.50;;;8.80;99.90;;;;;;5078143;28;20539;-77
2022/01/17 11:53:49;;;;;;;73.65;43.10;;;8.80;99.90;;;;;;5095587;28;20117;-75
2022/01/17 11:56:33;;;;;;;78.97;47.05;;;8.90;99.90;;;;;;5087903;28;20048;-77
2022/01/17 11:59:00;;;;;;;82.80;48.42;;;8.90;99.90;;;;;;5095627;28;20193;-76
2022/01/17 12:01:28;;;;;;;86.40;48.55;;;9.00;99.90;;;;;;5095649;28;20066;-77
2022/01/17 12:03:57;;;;;;;81.97;48.60;;;9.10;99.90;;;;;;5076908;28;20048;-75
2022/01/17 12:06:28;;;;;;;77.85;47.83;;;9.10;99.90;;;;;;5076354;28;20097;-76
2022/01/17 12:09:18;;;;;;;85.60;48.85;;;9.20;99.90;;;;;;5094663;28;20079;-75
2022/01/17 12:11:46;;;;;;;86.43;50.63;;;9.20;99.90;;;;;;5094996;28;20119;-76
2022/01/17 12:14:30;;;;;;;82.85;50.83;;;9.20;99.90;;;;;;5095274;28;20505;-76
2022/01/17 12:17:31;;;;;;;91.38;53.60;;;9.20;99.90;;;;;;5094632;28;20043;-76
2022/01/17 12:20:24;;;;;;;105.82;61.40;;;9.20;99.90;;;;;;5089296;28;20129;-77
2022/01/17 12:23:01;;;;;;;110.82;64.90;;;9.30;99.90;;;;;;5079089;28;20391;-76
2022/01/17 12:25:35;;;;;;;107.03;59.72;;;9.30;99.90;;;;;;5076924;28;20499;-76
2022/01/17 12:28:22;;;;;;;99.03;59.97;;;9.30;99.90;;;;;;5095314;28;20040;-76
2022/01/17 12:30:51;;;;;;;94.20;54.83;;;9.30;99.90;;;;;;5075931;28;20463;-77
2022/01/17 12:33:32;;;;;;;96.13;55.58;;;9.40;99.90;;;;;;5076556;28;20513;-77
2022/01/17 12:36:04;;;;;;;97.43;57.78;;;9.40;99.90;;;;;;5071530;28;20143;-77
2022/01/17 12:38:36;;;;;;;77.32;45.33;;;9.50;99.90;;;;;;5065119;28;20517;-76
2022/01/17 12:41:04;;;;;;;75.40;43.83;;;9.50;99.90;;;;;;5098620;28;20548;-77
2022/01/17 12:43:34;;;;;;;70.22;41.60;;;9.60;99.90;;;;;;5095679;28;20105;-77